Time;durP1;ratioP1;P1;durP2;ratioP2;P2;SDS_P1;SDS_P2;PMS_P1;PMS_P2;Temp;Humidity;BMP_temperature;BMP_pressure;BME280_temperature;BME280_humidity;BME280_pressure;Samples;Min_cycle;Max_cycle;Signal;HPM_P1;HPM_P2
2023/08/21 00:02:21;;;;;;;17.40;15.70;;;;;;;21.19;100.00;101619.72;5032123;28;20507;-86
2023/08/21 00:04:52;;;;;;;17.10;15.40;;;;;;;21.08;100.00;101615.13;5025015;28;20526;-86
2023/08/21 00:07:22;;;;;;;16.87;14.40;;;;;;;21.00;100.00;101601.81;5027231;28;20410;-85
2023/08/21 00:09:51;;;;;;;17.67;15.90;;;;;;;20.93;100.00;101601.16;5016452;28;20944;-85
2023/08/21 00:12:20;;;;;;;17.43;15.60;;;;;;;20.93;100.00;101605.81;5021906;28;20514;-85
2023/08/21 00:14:50;;;;;;;17.43;15.00;;;;;;;21.05;100.00;101609.31;5010668;28;20520;-86
2023/08/21 00:17:19;;;;;;;18.07;16.17;;;;;;;21.02;100.00;101610.63;5018122;28;20467;-84
2023/08/21 00:19:49;;;;;;;17.10;15.17;;;;;;;20.99;100.00;101605.66;5015825;28;20437;-85
2023/08/21 00:22:19;;;;;;;17.67;15.77;;;;;;;20.95;100.00;101607.25;5017251;28;20448;-85
2023/08/21 00:24:49;;;;;;;17.43;14.10;;;;;;;20.93;100.00;101605.81;5017289;28;20500;-85
2023/08/21 00:27:19;;;;;;;16.03;14.43;;;;;;;20.87;100.00;101602.16;5021786;28;20455;-85
2023/08/21 00:29:49;;;;;;;20.13;16.13;;;;;;;20.86;100.00;101603.28;5044112;28;20692;-85
2023/08/21 00:32:20;;;;;;;18.33;16.30;;;;;;;20.80;100.00;101601.53;5033332;28;20468;-85
2023/08/21 00:34:49;;;;;;;18.20;16.30;;;;;;;20.73;100.00;101600.84;5029812;28;20419;-85
2023/08/21 00:37:22;;;;;;;16.63;14.93;;;;;;;20.77;100.00;101607.50;5020227;28;20438;-84
2023/08/21 00:39:51;;;;;;;16.80;15.10;;;;;;;20.74;100.00;101613.53;5013822;28;20445;-85
2023/08/21 00:42:20;;;;;;;18.30;16.43;;;;;;;20.81;100.00;101608.69;5016206;28;20415;-85
2023/08/21 00:44:50;;;;;;;16.77;15.20;;;;;;;20.82;100.00;101604.84;5014543;28;20472;-84
2023/08/21 00:47:20;;;;;;;15.80;14.30;;;;;;;20.77;100.00;101613.00;5026074;28;20415;-85
2023/08/21 00:49:50;;;;;;;20.40;15.77;;;;;;;20.71;100.00;101611.28;5021161;28;20441;-86
2023/08/21 00:52:21;;;;;;;17.47;15.77;;;;;;;20.70;100.00;101606.88;5017594;28;20476;-85
2023/08/21 00:54:54;;;;;;;16.90;15.00;;;;;;;20.79;100.00;101610.84;5010100;28;20464;-85
2023/08/21 00:57:25;;;;;;;17.80;15.37;;;;;;;20.76;100.00;101616.88;5019426;28;20407;-85
2023/08/21 00:59:55;;;;;;;17.17;15.57;;;;;;;20.75;100.00;101606.94;5040634;28;20445;-84
2023/08/21 01:02:24;;;;;;;16.30;14.60;;;;;;;20.76;100.00;101608.63;5040465;28;20456;-87
2023/08/21 01:04:54;;;;;;;17.07;15.47;;;;;;;20.75;100.00;101620.69;5043721;28;20494;-88
2023/08/21 01:07:25;;;;;;;15.63;14.13;;;;;;;20.70;100.00;101606.88;5016190;28;20440;-86
2023/08/21 01:10:00;;;;;;;18.20;16.37;;;;;;;20.72;100.00;101604.72;5012823;28;20423;-86
2023/08/21 01:12:38;;;;;;;17.90;15.93;;;;;;;20.79;100.00;101600.69;4997296;28;20464;-87
2023/08/21 01:15:09;;;;;;;19.20;15.30;;;;;;;20.95;100.00;101614.66;5018765;28;20595;-86
2023/08/21 01:17:40;;;;;;;15.93;14.20;;;;;;;21.03;100.00;101611.47;5023891;28;20446;-86
2023/08/21 01:20:11;;;;;;;18.20;15.10;;;;;;;21.04;100.00;101608.47;5032035;28;20771;-85
2023/08/21 01:22:45;;;;;;;19.10;15.57;;;;;;;20.92;100.00;101604.97;5024048;28;20412;-85
2023/08/21 01:25:17;;;;;;;15.43;13.63;;;;;;;20.93;100.00;101606.66;5033204;28;20540;-85
2023/08/21 01:27:49;;;;;;;16.30;14.60;;;;;;;21.03;100.00;101612.31;5037391;28;20415;-85
2023/08/21 01:30:18;;;;;;;23.47;15.83;;;;;;;20.95;100.00;101604.50;5027151;28;20408;-86
2023/08/21 01:33:00;;;;;;;17.50;13.83;;;;;;;20.98;100.00;101605.88;5027583;28;20427;-86
2023/08/21 01:35:31;;;;;;;16.10;14.40;;;;;;;20.99;100.00;101600.13;5030829;28;20430;-86
2023/08/21 01:38:02;;;;;;;16.53;13.90;;;;;;;21.16;100.00;101595.44;5026227;28;20802;-86
2023/08/21 01:40:33;;;;;;;17.40;15.83;;;;;;;21.14;100.00;101603.13;5016301;28;20408;-86
2023/08/21 01:43:02;;;;;;;14.90;13.40;;;;;;;21.46;100.00;101588.66;5019587;28;20459;-87
2023/08/21 01:45:32;;;;;;;13.87;12.50;;;;;;;21.49;100.00;101594.50;5005184;28;20563;-87
2023/08/21 01:48:01;;;;;;;16.17;14.43;;;;;;;21.37;100.00;101587.44;5023570;28;20504;-87
2023/08/21 01:50:32;;;;;;;15.90;14.30;;;;;;;21.39;100.00;101572.34;5044497;28;20413;-86
2023/08/21 01:53:02;;;;;;;15.97;14.27;;;;;;;21.51;100.00;101566.69;5048591;28;20419;-87
2023/08/21 01:55:33;;;;;;;15.67;14.20;;;;;;;21.74;99.82;101580.13;5044189;28;20451;-86
2023/08/21 01:58:02;;;;;;;16.20;14.63;;;;;;;21.80;98.68;101584.63;5032869;28;20453;-86
2023/08/21 02:00:32;;;;;;;17.90;13.73;;;;;;;21.76;99.11;101590.91;5027401;28;20823;-87
2023/08/21 02:03:02;;;;;;;16.67;14.97;;;;;;;21.66;99.47;101588.88;5012223;28;20939;-86
2023/08/21 02:05:31;;;;;;;15.10;13.50;;;25.40;99.90;;;21.58;100.00;101581.09;5018876;28;20488;-87
2023/08/21 02:08:01;;;;;;;19.47;14.50;;;21.50;99.90;;;21.69;99.68;101578.16;5014489;28;21006;-87
2023/08/21 02:10:32;;;;;;;14.80;13.30;;;21.40;99.90;;;21.88;98.13;101586.09;5010139;28;20436;-87
2023/08/21 02:13:01;;;;;;;14.20;12.83;;;21.50;99.90;;;21.76;98.22;101586.25;5024915;28;20440;-87
2023/08/21 02:15:30;;;;;;;16.50;14.07;;;21.50;99.90;;;21.84;97.45;101585.75;5024685;28;20447;-87
2023/08/21 02:18:00;;;;;;;15.80;12.97;;;21.50;99.90;;;21.75;98.12;101584.56;5054201;28;20470;-86
2023/08/21 02:20:30;;;;;;;12.00;10.90;;;21.50;99.90;;;21.68;97.99;101582.03;5041663;28;20422;-85
2023/08/21 02:23:00;;;;;;;12.70;11.37;;;21.40;99.90;;;21.76;97.24;101583.47;5039212;28;20394;-85
2023/08/21 02:25:32;;;;;;;13.67;12.27;;;21.40;99.90;;;21.65;97.68;101581.69;5026956;28;20456;-85
2023/08/21 02:28:06;;;;;;;12.97;11.67;;;21.40;99.90;;;21.57;97.10;101582.19;5022025;28;20454;-85
2023/08/21 02:30:36;;;;;;;12.67;11.43;;;21.40;99.90;;;21.53;97.67;101583.78;5024478;28;20407;-86
2023/08/21 02:33:05;;;;;;;12.97;11.63;;;21.30;99.90;;;21.47;96.96;101585.66;5023348;28;20536;-85
2023/08/21 02:35:35;;;;;;;12.70;11.50;;;21.30;99.90;;;21.67;97.72;101587.78;5020529;28;20556;-86
2023/08/21 02:38:05;;;;;;;13.60;12.30;;;21.40;99.90;;;21.75;96.56;101587.31;5026895;28;20453;-86
2023/08/21 02:40:38;;;;;;;12.80;11.60;;;21.40;99.90;;;21.66;95.53;101586.13;5020739;28;20429;-86
2023/08/21 02:43:07;;;;;;;12.07;10.93;;;21.40;99.90;;;21.76;95.32;101588.16;5025549;28;20433;-86
2023/08/21 02:45:37;;;;;;;14.40;10.53;;;21.50;99.90;;;21.82;93.10;101587.97;5009876;28;20974;-87
2023/08/21 02:48:07;;;;;;;11.93;9.60;;;21.50;99.90;;;21.72;93.96;101587.84;5034533;28;20437;-87
2023/08/21 02:50:37;;;;;;;12.33;11.03;;;21.50;99.90;;;21.73;92.94;101584.00;5035943;28;20502;-86
2023/08/21 02:53:06;;;;;;;11.60;10.27;;;21.40;99.90;;;22.14;92.47;101590.75;5030852;28;20441;-87
2023/08/21 02:55:37;;;;;;;10.73;9.63;;;21.60;99.90;;;21.92;90.33;101588.06;5029865;28;20877;-87
2023/08/21 02:58:06;;;;;;;12.30;9.90;;;21.60;99.90;;;21.86;90.37;101589.09;5038699;28;20519;-86
2023/08/21 03:00:36;;;;;;;11.60;10.43;;;21.50;99.90;;;22.05;90.30;101593.16;5021640;28;20529;-85
2023/08/21 03:03:06;;;;;;;12.10;10.50;;;21.60;99.90;;;21.82;90.42;101587.97;5036902;28;20429;-88
2023/08/21 03:05:35;;;;;;;11.53;9.30;;;21.60;99.90;;;21.83;89.00;101589.63;5045731;28;20450;-87
2023/08/21 03:08:05;;;;;;;10.33;8.53;;;21.50;99.90;;;21.89;89.41;101585.81;5043333;28;20447;-88
2023/08/21 03:10:36;;;;;;;10.80;9.80;;;21.60;99.90;;;22.00;88.99;101584.03;5054847;28;20402;-88
2023/08/21 03:13:08;;;;;;;10.00;9.10;;;21.60;99.90;;;21.89;89.89;101585.81;5040588;28;20540;-86
2023/08/21 03:15:38;;;;;;;10.63;9.33;;;21.60;99.90;;;21.82;90.58;101593.47;5032693;28;20452;-87
2023/08/21 03:18:07;;;;;;;13.50;10.70;;;21.60;99.90;;;21.94;90.79;101590.56;5049296;28;20423;-86
2023/08/21 03:20:37;;;;;;;10.57;9.50;;;21.60;99.90;;;21.95;91.14;101587.56;5038943;28;20441;-87
2023/08/21 03:23:06;;;;;;;10.93;9.83;;;21.60;99.90;;;21.90;90.38;101576.47;5044323;28;20446;-87
2023/08/21 03:25:35;;;;;;;10.90;9.50;;;21.70;99.90;;;21.81;91.01;101571.69;5032326;28;20471;-87
2023/08/21 03:28:07;;;;;;;10.10;9.20;;;21.60;99.90;;;22.17;90.27;101578.41;5029183;28;20469;-87
2023/08/21 03:30:36;;;;;;;13.10;10.10;;;21.70;99.90;;;21.94;88.83;101574.88;5040304;28;20458;-87
2023/08/21 03:33:09;;;;;;;10.60;9.47;;;21.70;99.90;;;21.89;89.88;101580.31;5055640;28;20466;-86
2023/08/21 03:35:40;;;;;;;10.40;9.00;;;21.70;99.90;;;22.19;88.81;101567.91;5038639;28;20431;-86
2023/08/21 03:38:09;;;;;;;11.43;9.43;;;21.80;99.90;;;22.11;88.20;101569.25;5035692;28;20399;-87
2023/08/21 03:40:45;;;;;;;13.07;10.13;;;21.80;99.90;;;21.89;88.04;101572.03;5045265;28;20437;-86
2023/08/21 03:43:16;;;;;;;10.30;8.97;;;21.70;99.90;;;22.19;87.93;101570.69;5037929;28;20456;-87
2023/08/21 03:45:46;;;;;;;10.33;9.27;;;21.80;99.90;;;22.13;88.70;101571.72;5050620;28;20410;-86
2023/08/21 03:48:15;;;;;;;13.63;9.97;;;21.80;99.90;;;22.13;88.58;101574.47;5027638;28;20531;-86
2023/08/21 03:50:45;;;;;;;11.67;10.50;;;21.80;99.90;;;21.97;88.67;101584.56;5020941;28;20439;-87
2023/08/21 03:53:14;;;;;;;12.87;10.03;;;21.70;99.90;;;21.78;90.14;101584.06;5045149;28;20407;-87
2023/08/21 03:55:44;;;;;;;13.13;10.40;;;;;;;21.72;90.93;101585.09;5039171;28;20449;-87
2023/08/21 03:58:16;;;;;;;11.17;10.13;;;;;;;21.79;90.20;101591.22;5039212;28;20441;-87
2023/08/21 04:00:46;;;;;;;16.70;10.20;;;;;;;21.71;89.54;101591.69;5036899;28;20425;-87
2023/08/21 04:03:34;;;;;;;10.30;9.20;;;;;;;21.77;91.23;101590.66;5038860;28;20414;-86
2023/08/21 04:06:04;;;;;;;11.87;8.60;;;;;;;21.85;90.37;101592.94;5049368;28;20428;-87
2023/08/21 04:08:35;;;;;;;10.97;9.87;;;;;;;22.07;90.03;101595.69;5042922;28;20458;-86
2023/08/21 04:11:05;;;;;;;11.80;10.40;;;;;;;21.93;89.44;101589.72;5033747;28;20469;-86
2023/08/21 04:13:36;;;;;;;12.97;10.63;;;;;;;21.77;89.65;101598.94;5024741;28;20409;-84
2023/08/21 04:16:11;;;;;;;12.40;10.50;;;;;;;21.80;89.56;101606.66;5032328;28;20439;-85
2023/08/21 04:18:42;;;;;;;11.77;10.60;;;;;;;21.60;90.24;101606.44;5034786;28;20443;-84
2023/08/21 04:21:12;;;;;;;11.73;10.73;;;;;;;21.96;88.30;101610.44;5025812;28;20452;-85
2023/08/21 04:23:41;;;;;;;12.70;10.90;;;;;;;22.07;86.80;101607.50;5050602;28;20496;-85
2023/08/21 04:26:11;;;;;;;15.93;10.90;;;;;;;21.86;88.47;101613.91;5040602;28;20419;-85
2023/08/21 04:28:41;;;;;;;16.30;10.97;;;;;;;21.66;89.26;101599.91;5038370;28;20519;-86
2023/08/21 04:31:11;;;;;;;13.00;10.30;;;;;;;21.81;89.97;101610.25;5045216;28;20440;-85
2023/08/21 04:33:41;;;;;;;11.97;9.60;;;;;;;21.99;86.18;101621.78;5041072;28;20503;-86
2023/08/21 04:36:16;;;;;;;14.27;10.40;;;;;;;22.06;86.30;101621.56;5042340;28;20444;-85
2023/08/21 04:38:49;;;;;;;17.30;13.03;;;;;;;22.23;87.69;101621.44;5041012;28;20463;-86
2023/08/21 04:41:19;;;;;;;12.33;11.07;;;;;;;22.24;87.28;101629.44;5046959;28;20408;-86
2023/08/21 04:43:50;;;;;;;16.90;12.40;;;;;;;22.36;87.05;101626.53;5042043;28;20484;-87
2023/08/21 04:46:21;;;;;;;25.63;15.03;;;;;;;22.67;85.80;101628.41;5037650;28;20441;-86
2023/08/21 04:48:51;;;;;;;15.50;11.60;;;;;;;22.79;84.55;101620.00;5036894;28;20443;-86
2023/08/21 04:51:20;;;;;;;13.13;11.73;;;;;;;22.94;83.41;101628.38;5033640;28;20419;-87
2023/08/21 04:53:52;;;;;;;12.70;11.40;;;;;;;22.92;83.48;101625.88;5021730;28;20461;-87
2023/08/21 04:56:23;;;;;;;13.63;12.20;;;;;;;22.94;83.67;101631.97;5017309;28;20482;-88
2023/08/21 04:58:56;;;;;;;17.83;14.33;;;;;;;22.95;84.07;101639.13;5021585;28;20475;-88
2023/08/21 05:01:30;;;;;;;15.03;13.27;;;;;;;22.89;84.99;101640.22;5026578;28;20451;-85
2023/08/21 05:04:01;;;;;;;13.47;11.80;;;;;;;22.93;85.55;101641.34;5039053;28;20500;-86
2023/08/21 05:06:34;;;;;;;19.23;14.03;;;;;;;23.63;82.12;101642.81;5035599;28;20488;-86
2023/08/21 05:09:04;;;;;;;15.40;12.43;;;;;;;23.46;82.43;101636.69;5021206;28;20436;-84
2023/08/21 05:11:35;;;;;;;13.93;12.60;;;;;;;23.67;82.14;101643.91;5031212;28;20469;-87
2023/08/21 05:14:09;;;;;;;18.27;13.47;;;;;;;24.38;79.09;101655.16;5016862;28;20476;-91
2023/08/21 05:16:39;;;;;;;12.57;10.70;;;;;;;24.97;75.66;101643.53;5008416;28;20476;-86
2023/08/21 05:19:09;;;;;;;17.80;11.93;;;;;;;25.01;74.52;101648.22;5010549;28;20531;-84
2023/08/21 05:21:40;;;;;;;15.10;13.00;;;;;;;24.57;76.64;101647.13;5024406;28;20433;-83
2023/08/21 05:24:10;;;;;;;17.00;13.50;;;;;;;24.15;79.27;101645.44;5025169;28;20465;-84
2023/08/21 05:26:45;;;;;;;14.43;12.60;;;;;;;23.90;80.42;101639.03;5023088;28;20486;-83
2023/08/21 05:29:16;;;;;;;17.17;12.50;;;;;;;23.68;81.54;101636.47;5026151;28;21010;-85
2023/08/21 05:31:46;;;;;;;13.37;11.83;;;;;;;23.72;82.34;101635.66;5038257;28;20448;-84
2023/08/21 05:34:16;;;;;;;14.17;12.67;;;;;;;24.01;81.39;101643.47;5034736;28;20430;-85
2023/08/21 05:37:05;;;;;;;15.33;11.93;;;;;;;24.09;80.57;101634.63;5036359;28;20478;-85
2023/08/21 05:44:32;;;;;;;16.80;15.10;;;;;;;24.40;78.32;101630.81;5029460;28;20784;-84
2023/08/21 05:50:38;;;;;;;14.37;13.00;;;;;;;24.45;77.25;101639.09;4948126;28;20463;-86
2023/08/21 05:53:12;;;;;;;12.77;11.53;;;;;;;24.57;76.66;101645.19;5018772;28;20443;-85
2023/08/21 05:55:42;;;;;;;12.90;11.60;;;;;;;24.55;76.91;101647.41;5022280;28;20476;-85
2023/08/21 05:58:13;;;;;;;15.80;11.87;;;;;;;24.41;76.82;101649.06;5027729;28;20517;-85
2023/08/21 06:00:45;;;;;;;13.70;12.40;;;;;;;24.68;75.53;101649.63;5019260;28;20448;-86
2023/08/21 06:03:15;;;;;;;17.40;12.83;;;;;;;24.77;74.96;101649.06;5022653;28;20868;-84
2023/08/21 06:06:02;;;;;;;13.93;12.60;;;;;;;24.71;75.32;101648.22;5039308;28;20471;-84
2023/08/21 06:08:32;;;;;;;13.77;12.43;;;;;;;24.58;75.97;101657.94;5025699;28;20453;-86
2023/08/21 06:11:02;;;;;;;13.27;11.97;;;;;;;24.58;76.56;101657.09;5016300;28;20505;-86
2023/08/21 06:13:33;;;;;;;14.87;12.17;;;;;;;24.44;76.55;101665.13;5032682;28;20476;-86
2023/08/21 06:16:05;;;;;;;14.00;12.63;;;;;;;24.35;77.37;101661.22;5020937;28;20842;-86
2023/08/21 06:18:37;;;;;;;13.80;12.60;;;;;;;24.49;77.79;101662.38;5015675;28;20441;-86
2023/08/21 06:21:07;;;;;;;13.73;12.43;;;;;;;24.78;75.75;101659.03;5016202;28;20452;-87
2023/08/21 06:23:37;;;;;;;14.70;13.30;;;;;;;24.87;74.76;101668.47;5039586;28;20453;-86
2023/08/21 06:26:06;;;;;;;17.10;14.50;;;;;;;24.93;74.42;101667.34;5014653;28;20826;-86
2023/08/21 06:28:36;;;;;;;17.93;13.10;;;;;;;24.87;74.43;101674.84;5034708;28;20466;-85
2023/08/21 06:31:09;;;;;;;16.90;14.23;;;;;;;24.87;74.99;101674.00;5035466;28;21106;-85
2023/08/21 06:33:39;;;;;;;13.73;12.43;;;;;;;25.25;73.89;101676.13;5027835;28;20456;-85
2023/08/21 06:36:09;;;;;;;14.20;12.37;;;;;;;25.08;73.90;101675.59;5021476;28;20440;-84
2023/08/21 06:38:39;;;;;;;13.03;11.73;;;;;;;25.04;74.21;101671.75;5034739;28;20435;-82
2023/08/21 06:41:08;;;;;;;15.20;13.77;;;;;;;25.16;74.09;101679.75;5044542;28;20551;-84
2023/08/21 06:43:47;;;;;;;15.10;13.70;;;;;;;25.12;73.58;101682.28;5036231;28;20457;-87
2023/08/21 06:46:26;;;;;;;13.53;11.90;;;;;;;25.03;75.10;101683.91;5032568;28;20448;-84
2023/08/21 06:49:21;;;;;;;15.00;13.50;;;;;;;25.11;74.79;101686.16;5041311;28;20459;-87
2023/08/21 08:11:57;;;;;;;9.83;6.03;;;;;;;25.18;59.28;101714.38;4903314;29;20433;-87
2023/08/21 08:18:58;;;;;;;7.40;6.03;;;;;;;25.23;60.05;101714.34;4929837;29;20445;-87
2023/08/21 08:21:30;;;;;;;7.20;6.00;;;;;;;25.24;59.92;101707.72;4949699;29;20455;-86
2023/08/21 08:24:00;;;;;;;11.43;5.60;;;;;;;25.14;57.54;101710.50;4916135;29;20876;-85
2023/08/21 08:26:31;;;;;;;9.17;4.57;;;;;;;25.36;54.95;101715.72;4935644;29;20473;-85
2023/08/21 08:29:18;;;;;;;6.47;4.03;;;;;;;25.51;51.80;101708.19;4920263;29;20473;-88
2023/08/21 08:31:56;;;;;;;4.07;2.63;;;;;;;25.51;50.62;101716.50;4930356;28;20445;-86
2023/08/21 08:35:19;;;;;;;4.30;2.50;;;;;;;25.60;50.31;101721.50;4928553;29;20560;-86
2023/08/21 09:56:50;;;;;;;3.23;2.10;;;;;;;27.22;41.07;101705.41;4917357;29;20959;-85
2023/08/21 09:59:20;;;;;;;4.60;2.10;;;;;;;26.95;42.08;101707.91;4912439;29;20465;-86
2023/08/21 10:01:52;;;;;;;3.33;1.93;;;;;;;27.05;42.73;101698.66;4912744;29;20430;-86
2023/08/21 10:04:24;;;;;;;5.13;2.40;;;;;;;26.59;43.15;101699.03;4908474;29;20455;-86
2023/08/21 10:06:58;;;;;;;6.93;2.60;;;;;;;26.62;44.16;101689.31;4889109;29;20453;-86
2023/08/21 10:09:29;;;;;;;6.53;2.10;;;;;;;27.09;43.55;101705.28;4911542;29;20478;-87
2023/08/21 10:12:02;;;;;;;4.40;1.93;;;;;;;27.64;42.82;101695.53;4898008;29;20451;-85
2023/08/21 10:14:32;;;;;;;3.50;2.33;;;;;;;27.60;42.40;101694.44;4902594;29;20467;-86
2023/08/21 10:17:02;;;;;;;4.50;2.03;;;;;;;27.35;42.89;101697.50;4904085;29;20969;-86
2023/08/21 10:19:35;;;;;;;4.57;2.13;;;;;;;27.55;42.45;101697.28;4896748;29;20970;-86
2023/08/21 10:22:05;;;;;;;4.57;2.10;;;;;;;27.95;41.94;101695.94;4908021;29;20538;-85
2023/08/21 10:24:38;;;;;;;5.10;1.50;;;;;;;28.04;41.39;101694.97;4897749;29;20480;-86
2023/08/21 10:27:10;;;;;;;4.93;1.90;;;;;;;27.95;40.80;101693.97;4898155;29;20450;-88
2023/08/21 10:29:40;;;;;;;6.27;2.23;;;;;;;27.98;40.47;101696.16;4902375;29;20474;-87
2023/08/21 10:32:10;;;;;;;4.70;2.37;;;;;;;28.32;40.51;101690.41;4902841;29;20466;-86
2023/08/21 10:34:52;;;;;;;3.33;1.80;;;;;;;28.36;39.82;101701.78;4888008;29;20529;-86
2023/08/21 10:37:21;;;;;;;4.87;2.90;;;;;;;28.40;40.61;101698.09;4900584;29;20440;-87
2023/08/21 10:39:58;;;;;;;3.83;2.30;;;;;;;28.26;41.27;101696.38;4904860;29;20436;-85
2023/08/21 10:42:42;;;;;;;4.20;3.20;;;;;;;27.58;41.72;101696.72;4915505;29;20419;-86
2023/08/21 10:45:13;;;;;;;5.67;2.30;;;;;;;27.89;40.83;101697.13;4919063;29;20467;-87
2023/08/21 10:47:47;;;;;;;4.63;2.17;;;;;;;27.77;40.43;101700.34;4925044;29;20426;-86
2023/08/21 10:50:17;;;;;;;3.93;2.73;;;;;;;27.77;40.92;101703.13;4902187;29;20544;-86
2023/08/21 10:52:47;;;;;;;5.23;1.87;;;;;;;27.87;40.76;101697.44;4890763;29;20450;-86
2023/08/21 10:55:18;;;;;;;3.40;1.90;;;;;;;27.61;40.77;101710.00;4890689;29;20495;-86
2023/08/21 10:57:51;;;;;;;5.80;2.07;;;;;;;27.49;40.92;101704.06;4886699;29;20721;-86
2023/08/21 11:00:22;;;;;;;5.40;1.67;;;;;;;27.86;40.69;101697.72;4909287;29;20434;-87
2023/08/21 11:02:52;;;;;;;3.13;2.20;;;;;;;28.31;40.57;101704.63;4908107;29;20461;-86
2023/08/21 11:05:22;;;;;;;3.37;2.73;;;;;;;28.48;40.27;101707.69;4919680;29;20465;-87
2023/08/21 11:07:52;;;;;;;3.63;2.20;;;;;;;28.71;39.21;101703.16;4894691;29;20464;-87
2023/08/21 11:10:25;;;;;;;6.43;2.37;;;;;;;28.86;38.81;101705.69;4907252;29;20457;-87
2023/08/21 11:12:57;;;;;;;2.77;2.03;;;;;;;28.94;39.23;101708.63;4889095;29;20438;-86
2023/08/21 11:15:28;;;;;;;2.53;1.63;;;;;;;28.72;39.25;101702.88;4918762;29;20513;-87
2023/08/21 11:18:00;;;;;;;3.60;1.80;;;;;;;28.36;39.28;101702.59;4923585;29;20459;-86
2023/08/21 11:20:33;;;;;;;4.77;2.00;;;;;;;28.21;40.32;101708.41;4909053;29;20426;-87
2023/08/21 11:23:07;;;;;;;4.17;2.13;;;;;;;28.16;40.97;101702.06;4926828;29;20452;-87
2023/08/21 11:25:41;;;;;;;2.47;1.83;;;;;;;28.03;40.41;101698.06;4897997;29;21010;-86
2023/08/21 11:28:20;;;;;;;3.30;2.10;;;;;;;28.02;40.52;101702.81;4893965;29;20466;-86
2023/08/21 11:30:50;;;;;;;2.93;2.03;;;;;;;28.67;39.72;101699.31;4906827;29;20570;-87
2023/08/21 11:33:20;;;;;;;2.70;2.50;;;;;;;28.69;39.53;101702.63;4908475;29;20494;-87
2023/08/21 11:35:51;;;;;;;5.10;2.03;;;;;;;28.68;39.39;101700.97;4912028;29;20455;-87
2023/08/21 11:38:24;;;;;;;2.90;1.67;;;;;;;28.29;39.63;101696.56;4909298;29;20437;-87
2023/08/21 11:41:10;;;;;;;4.50;2.07;;;;;;;28.87;39.27;101705.41;4900013;29;20457;-86
2023/08/21 11:43:43;;;;;;;4.40;2.30;;;;;;;29.07;39.07;101700.59;4907615;29;20780;-86
2023/08/21 11:46:14;;;;;;;3.10;1.40;;;;;;;28.89;38.55;101696.75;4886944;29;20517;-86
2023/08/21 11:48:45;;;;;;;3.03;2.33;;;;;;;29.22;38.31;101698.34;4892763;29;20467;-86
2023/08/21 11:51:16;;;;;;;4.13;1.63;;;;;;;28.73;38.45;101695.34;4902305;29;20523;-86
2023/08/21 11:57:55;;;;;;;5.00;2.70;;;;;;;28.66;38.60;101695.69;4850921;29;20472;-87
2023/08/21 12:00:31;;;;;;;3.83;1.87;;;;;;;28.48;38.96;101693.78;4865587;29;20437;-87
2023/08/21 12:09:48;;;;;;;2.67;2.20;;;;;;;28.68;39.56;101693.44;4854071;29;20490;-87
2023/08/21 12:12:18;;;;;;;6.40;2.47;;;;;;;28.63;40.23;101689.91;4860350;29;20449;-87
2023/08/21 12:14:48;;;;;;;7.47;2.70;;;;;;;29.12;40.54;101697.72;4850818;29;20583;-87
2023/08/21 12:17:20;;;;;;;6.53;2.33;;;;;;;28.86;39.53;101695.38;4863863;29;20443;-88
2023/08/21 12:20:10;;;;;;;4.53;2.20;;;;;;;28.70;40.44;101701.50;4839075;29;20445;-88
2023/08/21 12:26:01;;;;;;;5.23;2.50;;;;;;;28.28;40.85;101683.78;4845011;29;20463;-87
2023/08/21 12:28:32;;;;;;;5.70;3.07;;;;;;;28.13;40.94;101683.22;4833946;29;20619;-86
2023/08/21 12:31:03;;;;;;;5.80;2.13;;;;;;;27.77;41.61;101680.88;4854959;29;20587;-87
2023/08/21 12:33:34;;;;;;;3.77;2.27;;;;;;;28.30;41.17;101678.75;4903372;29;20429;-86
2023/08/21 12:36:04;;;;;;;3.70;1.83;;;;;;;29.03;40.65;101685.63;4889596;29;20568;-85
2023/08/21 12:38:33;;;;;;;3.67;1.80;;;;;;;28.98;40.40;101685.72;4886024;29;20451;-86
2023/08/21 12:41:03;;;;;;;4.67;2.17;;;;;;;29.09;39.80;101681.63;4871143;29;20487;-86
2023/08/21 12:43:33;;;;;;;4.77;2.63;;;;;;;29.42;38.49;101685.16;4887913;29;20461;-86
2023/08/21 12:46:03;;;;;;;2.40;1.67;;;;;;;29.58;37.03;101687.31;4914577;29;20412;-87
2023/08/21 14:51:30;;;;;;;8.73;4.50;;;;;;;27.05;37.37;101643.94;6088119;23;20405;-87
2023/08/21 15:19:19;;;;;;;3.53;1.77;;;;;;;28.49;36.33;101623.03;6243494;23;20480;-88
2023/08/21 15:23:04;;;;;;;3.40;1.93;;;;;;;28.51;37.14;101618.81;6242349;23;20378;-89
2023/08/21 15:25:57;;;;;;;2.43;1.57;;;;;;;28.65;36.11;101620.81;6242139;23;20403;-88
2023/08/21 15:29:02;;;;;;;3.80;2.10;;;;;;;28.35;36.61;101623.00;6241993;23;20419;-87
2023/08/21 15:32:26;;;;;;;4.00;1.40;;;;;;;28.01;37.67;101617.69;6241496;23;20451;-87
2023/08/21 15:35:16;;;;;;;2.03;1.27;;;;;;;27.90;37.18;101621.72;6242115;23;20430;-88
2023/08/21 15:41:36;;;;;;;3.03;1.50;;;;;;;27.77;38.19;101608.56;6242996;23;20415;-88
2023/08/21 15:48:06;;;;;;;5.93;1.50;;;;;;;27.83;38.14;101598.22;6197707;23;20438;-87
2023/08/21 15:55:08;;;;;;;3.00;1.87;;;;;;;27.23;38.40;101601.47;6243189;23;20450;-88
2023/08/21 16:50:05;;;;;;;4.60;1.77;;;;;;;28.01;38.68;101578.72;6195890;22;20458;-87
2023/08/21 16:52:50;;;;;;;4.77;1.67;;;;;;;28.16;38.03;101586.03;6237724;23;20422;-87
2023/08/21 16:55:32;;;;;;;4.90;1.90;;;;;;;28.24;38.24;101595.63;6221694;23;20437;-88
2023/08/21 16:58:10;;;;;;;4.10;2.27;;;;;;;28.02;38.94;101582.34;6202828;23;20356;-87
2023/08/21 17:00:53;;;;;;;7.37;2.13;;;;;;;28.12;38.68;101578.59;6203895;23;20419;-87
2023/08/21 17:03:31;;;;;;;3.37;2.30;;;;;;;28.27;38.55;101578.34;6207166;23;20413;-87
2023/08/21 17:06:40;;;;;;;7.53;2.40;;;;;;;28.26;38.49;101585.03;6210596;23;20385;-87
2023/08/21 17:09:14;;;;;;;5.57;2.23;;;;;;;28.20;38.10;101591.81;6223156;22;20470;-87
2023/08/21 22:23:12;;;;;;;3.87;3.30;;;;;;;20.24;66.84;101591.50;6114315;23;20878;-87
2023/08/21 22:49:46;;;;;;;6.63;3.60;;;;;;;20.33;68.91;101599.13;6233707;22;20398;-86
2023/08/21 22:53:45;;;;;;;5.50;3.37;;;;;;;20.42;68.58;101588.56;6097752;23;20406;-87
2023/08/21 23:02:52;;;;;;;4.77;3.10;;;;;;;20.33;69.91;101588.13;6238027;22;20406;-86
2023/08/21 23:06:26;;;;;;;5.33;3.67;;;;;;;20.29;69.83;101584.19;6162950;23;20451;-88
2023/08/21 23:22:05;;;;;;;6.33;4.20;;;;;;;20.30;70.71;101574.91;6239782;23;20435;-87
2023/08/21 23:32:39;;;;;;;5.93;4.73;;;;;;;20.24;71.62;101569.53;6226280;23;20394;-85
2023/08/21 23:35:49;;;;;;;7.47;3.43;;;;;;;20.33;71.65;101573.59;6226158;23;20446;-87
2023/08/21 23:38:27;;;;;;;5.10;4.20;;;;;;;20.23;72.16;101573.38;6201892;23;20413;-86
2023/08/21 23:41:18;;;;;;;5.30;3.47;;;;;;;20.18;72.46;101574.13;6223849;23;20413;-87
2023/08/21 23:44:28;;;;;;;6.60;3.53;;;;;;;20.14;73.20;101572.94;6228046;23;20523;-87
2023/08/21 23:47:05;;;;;;;5.33;3.67;;;;;;;20.21;72.92;101568.13;6225846;23;20382;-86
2023/08/21 23:50:12;;;;;;;5.20;4.70;;;;;;;20.19;73.14;101570.28;6227723;23;20367;-86
2023/08/21 23:52:45;;;;;;;7.47;3.57;;;;;;;20.20;73.60;101571.94;6222906;23;20512;-86
2023/08/21 23:56:01;;;;;;;5.30;3.70;;;;;;;20.35;74.31;101572.22;6239047;23;20406;-87
2023/08/21 23:58:40;;;;;;;8.50;3.80;;;;;;;20.24;73.73;101575.84;6217975;23;20412;-87
